sensor_id;sensor_type;location;lat;lon;timestamp;temperature;humidity
63407;SHT31;49543;45.892;10.838;2023-09-07T11:41:42;34.21;47.43
63407;SHT31;49543;45.892;10.838;2023-09-07T11:44:08;34.61;47.49
63407;SHT31;49543;45.892;10.838;2023-09-07T11:46:34;34.74;47.41
63407;SHT31;49543;45.892;10.838;2023-09-07T11:49:00;34.83;46.80
63407;SHT31;49543;45.892;10.838;2023-09-07T11:51:25;35.17;45.63
63407;SHT31;49543;45.892;10.838;2023-09-07T11:53:51;35.34;45.40
63407;SHT31;49543;45.892;10.838;2023-09-07T11:56:16;36.16;46.15
63407;SHT31;49543;45.892;10.838;2023-09-07T11:58:43;36.26;47.17
63407;SHT31;49543;45.892;10.838;2023-09-07T12:01:09;36.15;46.67
63407;SHT31;49543;45.892;10.838;2023-09-07T12:03:35;35.98;47.15
63407;SHT31;49543;45.892;10.838;2023-09-07T12:06:00;36.05;46.72
63407;SHT31;49543;45.892;10.838;2023-09-07T12:08:26;36.71;45.69
63407;SHT31;49543;45.892;10.838;2023-09-07T12:10:51;37.17;46.08
63407;SHT31;49543;45.892;10.838;2023-09-07T12:13:17;37.96;44.25
63407;SHT31;49543;45.892;10.838;2023-09-07T12:15:42;38.13;44.82
63407;SHT31;49543;45.892;10.838;2023-09-07T12:18:07;37.80;43.58
63407;SHT31;49543;45.892;10.838;2023-09-07T12:20:33;37.98;44.49
63407;SHT31;49543;45.892;10.838;2023-09-07T12:23:00;37.94;44.10
63407;SHT31;49543;45.892;10.838;2023-09-07T12:25:27;37.05;45.18
63407;SHT31;49543;45.892;10.838;2023-09-07T12:27:53;36.63;45.57
63407;SHT31;49543;45.892;10.838;2023-09-07T12:30:19;37.02;44.33
63407;SHT31;49543;45.892;10.838;2023-09-07T12:32:45;37.21;46.26
63407;SHT31;49543;45.892;10.838;2023-09-07T12:35:10;37.40;45.86
63407;SHT31;49543;45.892;10.838;2023-09-07T12:37:36;38.15;44.14
63407;SHT31;49543;45.892;10.838;2023-09-07T12:40:03;38.47;43.91
63407;SHT31;49543;45.892;10.838;2023-09-07T12:42:42;38.27;44.74
63407;SHT31;49543;45.892;10.838;2023-09-07T12:45:11;38.63;43.83
63407;SHT31;49543;45.892;10.838;2023-09-07T12:47:37;39.47;42.75
63407;SHT31;49543;45.892;10.838;2023-09-07T12:50:04;40.43;41.97
63407;SHT31;49543;45.892;10.838;2023-09-07T12:52:30;41.21;39.99
63407;SHT31;49543;45.892;10.838;2023-09-07T12:54:56;41.77;38.40
63407;SHT31;49543;45.892;10.838;2023-09-07T12:57:21;41.19;37.92
63407;SHT31;49543;45.892;10.838;2023-09-07T12:59:47;40.80;39.65
63407;SHT31;49543;45.892;10.838;2023-09-07T13:02:12;40.47;39.29
63407;SHT31;49543;45.892;10.838;2023-09-07T13:04:38;40.82;38.76
63407;SHT31;49543;45.892;10.838;2023-09-07T13:07:03;40.63;39.18
63407;SHT31;49543;45.892;10.838;2023-09-07T13:09:29;40.85;39.91
63407;SHT31;49543;45.892;10.838;2023-09-07T13:11:54;42.22;38.51
63407;SHT31;49543;45.892;10.838;2023-09-07T13:14:19;43.15;37.91
63407;SHT31;49543;45.892;10.838;2023-09-07T13:16:45;44.17;37.06
63407;SHT31;49543;45.892;10.838;2023-09-07T13:19:10;44.24;35.44
63407;SHT31;49543;45.892;10.838;2023-09-07T13:21:36;44.23;35.14
63407;SHT31;49543;45.892;10.838;2023-09-07T13:24:03;44.52;35.65
63407;SHT31;49543;45.892;10.838;2023-09-07T20:55:22;23.91;74.37
